createdAt,value
2023-05-18T00:01:05.056Z,99.90
2023-05-18T00:03:37.014Z,99.90
2023-05-18T00:06:10.258Z,99.90
2023-05-18T00:08:42.172Z,99.90
2023-05-18T00:11:13.964Z,99.90
2023-05-18T00:13:45.771Z,99.90
2023-05-18T00:16:17.583Z,99.90
2023-05-18T00:18:49.401Z,99.90
2023-05-18T00:21:22.531Z,99.90
2023-05-18T00:23:54.522Z,99.90
2023-05-18T00:26:26.758Z,99.90
2023-05-18T00:28:58.701Z,99.90
2023-05-18T00:31:32.952Z,99.90
2023-05-18T00:34:09.177Z,99.90
2023-05-18T00:36:41.436Z,99.90
2023-05-18T00:39:14.107Z,99.90
2023-05-18T00:41:45.899Z,99.90
2023-05-18T00:44:17.736Z,99.90
2023-05-18T00:46:50.134Z,99.90
2023-05-18T00:49:22.067Z,99.90
2023-05-18T00:51:55.012Z,99.90
2023-05-18T00:54:27.131Z,99.90
2023-05-18T00:57:02.300Z,99.90
2023-05-18T00:59:34.786Z,99.90
2023-05-18T01:02:07.032Z,99.90
2023-05-18T01:04:41.329Z,99.90
2023-05-18T01:07:16.629Z,99.90
2023-05-18T01:09:48.453Z,99.90
2023-05-18T01:12:33.206Z,99.90
2023-05-18T01:15:17.911Z,99.90
2023-05-18T01:18:05.077Z,99.90
2023-05-18T01:20:50.053Z,99.90
2023-05-18T01:23:36.532Z,99.90
2023-05-18T01:26:16.402Z,99.90
2023-05-18T01:28:51.230Z,99.90
2023-05-18T01:31:23.497Z,99.90
2023-05-18T01:33:55.404Z,99.90
2023-05-18T01:36:27.381Z,99.90
2023-05-18T01:39:01.764Z,99.90
2023-05-18T01:41:37.509Z,99.90
2023-05-18T01:44:42.731Z,99.90
2023-05-18T01:47:17.012Z,99.90
2023-05-18T01:49:56.571Z,99.90
2023-05-18T01:52:48.163Z,99.90
2023-05-18T01:55:21.688Z,99.90
2023-05-18T01:57:54.535Z,99.90
2023-05-18T02:00:27.202Z,99.90
2023-05-18T02:02:59.073Z,99.90
2023-05-18T02:05:31.180Z,99.90
2023-05-18T02:08:03.347Z,99.90
2023-05-18T02:10:35.126Z,99.90
2023-05-18T02:13:07.028Z,99.90
2023-05-18T02:15:38.802Z,99.90
2023-05-18T02:18:10.778Z,99.90
2023-05-18T02:20:42.915Z,99.90
2023-05-18T02:23:15.861Z,99.90
2023-05-18T02:25:47.585Z,99.90
2023-05-18T02:28:19.332Z,99.90
2023-05-18T02:30:51.084Z,99.90
2023-05-18T02:33:26.599Z,99.90
2023-05-18T02:35:58.452Z,99.90
2023-05-18T02:38:30.228Z,99.90
2023-05-18T02:41:01.981Z,99.90
2023-05-18T02:43:34.165Z,99.90
2023-05-18T02:46:06.820Z,99.90
2023-05-18T02:48:39.153Z,99.90
2023-05-18T02:51:11.051Z,99.90
2023-05-18T02:53:45.698Z,99.90
2023-05-18T02:56:20.035Z,99.90
2023-05-18T02:59:01.511Z,99.90
2023-05-18T03:01:41.193Z,99.90
2023-05-18T03:04:14.026Z,99.90
2023-05-18T03:06:52.999Z,99.90
2023-05-18T03:09:26.335Z,99.90
2023-05-18T03:11:59.542Z,99.90
2023-05-18T03:14:31.373Z,99.90
2023-05-18T03:17:06.037Z,99.90
2023-05-18T03:19:38.132Z,99.90
2023-05-18T03:22:10.201Z,99.90
2023-05-18T03:24:43.206Z,99.90
2023-05-18T03:27:18.933Z,99.90
2023-05-18T03:29:53.076Z,99.90
2023-05-18T03:32:24.998Z,99.90
2023-05-18T03:34:56.762Z,99.90
2023-05-18T03:37:28.565Z,99.90
2023-05-18T03:40:15.620Z,99.90
2023-05-18T03:42:49.354Z,99.90
2023-05-18T03:45:21.948Z,99.90
2023-05-18T03:47:53.803Z,99.90
2023-05-18T03:50:25.580Z,99.90
2023-05-18T03:52:58.264Z,99.90
2023-05-18T03:55:30.652Z,99.90
2023-05-18T03:58:03.356Z,99.90
2023-05-18T04:00:36.396Z,99.90
2023-05-18T04:03:12.483Z,99.90
2023-05-18T04:05:44.868Z,99.90
2023-05-18T04:08:17.351Z,99.90
2023-05-18T04:10:49.147Z,99.90
2023-05-18T04:13:21.185Z,99.90
2023-05-18T04:15:53.022Z,99.90
2023-05-18T04:18:24.796Z,99.90
2023-05-18T04:20:56.889Z,99.90
2023-05-18T04:23:29.428Z,99.90
2023-05-18T04:26:01.198Z,99.90
2023-05-18T04:28:33.947Z,99.90
2023-05-18T04:31:06.044Z,99.90
2023-05-18T04:33:38.465Z,99.90
2023-05-18T04:36:10.364Z,99.90
2023-05-18T04:38:42.147Z,99.90
2023-05-18T04:41:14.229Z,99.90
2023-05-18T04:43:47.255Z,99.90
2023-05-18T04:46:19.451Z,99.90
2023-05-18T04:48:53.157Z,99.10
2023-05-18T04:51:25.014Z,96.50
2023-05-18T04:53:56.970Z,94.40
2023-05-18T04:56:29.731Z,92.60
2023-05-18T04:59:01.886Z,90.40
2023-05-18T05:01:34.653Z,88.50
2023-05-18T05:04:06.666Z,88.80
2023-05-18T05:06:38.541Z,87.80
2023-05-18T05:09:10.311Z,87.20
2023-05-18T05:11:42.398Z,86.30
2023-05-18T05:14:14.195Z,86.10
2023-05-18T05:16:46.250Z,86.00
2023-05-18T05:19:18.087Z,85.20
2023-05-18T05:21:50.289Z,85.50
2023-05-18T05:24:23.390Z,85.80
2023-05-18T05:26:55.158Z,86.00
2023-05-18T05:29:27.992Z,86.50
2023-05-18T05:31:59.804Z,87.00
2023-05-18T05:34:31.751Z,86.00
2023-05-18T05:37:04.410Z,85.70
2023-05-18T05:39:36.182Z,89.70
2023-05-18T05:42:08.758Z,87.90
2023-05-18T05:44:41.023Z,88.80
2023-05-18T05:47:12.965Z,90.00
2023-05-18T05:49:46.064Z,90.10
2023-05-18T05:52:17.935Z,89.00
2023-05-18T05:54:49.780Z,90.10
2023-05-18T05:57:21.543Z,90.20
2023-05-18T05:59:53.309Z,87.00
2023-05-18T06:02:25.323Z,89.50
2023-05-18T06:04:57.376Z,90.30
2023-05-18T06:07:30.833Z,89.00
2023-05-18T06:10:02.785Z,90.20
2023-05-18T06:12:34.779Z,90.30
2023-05-18T06:15:07.678Z,90.80
2023-05-18T06:17:41.215Z,90.00
2023-05-18T06:20:13.689Z,90.90
2023-05-18T06:22:45.754Z,92.20
2023-05-18T06:25:41.013Z,91.20
2023-05-18T06:28:24.421Z,89.80
2023-05-18T06:31:03.577Z,90.90
2023-05-18T06:33:55.686Z,91.10
2023-05-18T06:36:27.923Z,91.30
2023-05-18T06:38:59.980Z,91.90
2023-05-18T06:41:31.832Z,91.50
2023-05-18T06:44:03.962Z,92.50
2023-05-18T06:46:42.054Z,92.30
2023-05-18T06:49:22.358Z,92.10
2023-05-18T06:51:54.114Z,91.50
2023-05-18T06:54:25.881Z,91.00
2023-05-18T06:56:58.796Z,90.20
2023-05-18T06:59:30.784Z,90.70
2023-05-18T07:02:02.757Z,90.50
2023-05-18T07:04:36.498Z,92.10
2023-05-18T07:07:08.505Z,91.10
2023-05-18T07:09:43.194Z,90.70
2023-05-18T07:12:15.040Z,91.00
2023-05-18T07:14:47.002Z,90.90
2023-05-18T07:17:18.736Z,90.40
2023-05-18T07:19:50.655Z,91.40
2023-05-18T07:22:22.404Z,91.10
2023-05-18T07:24:54.250Z,90.30
2023-05-18T07:27:26.583Z,91.30
2023-05-18T07:29:58.336Z,90.40
2023-05-18T07:32:30.166Z,90.30
2023-05-18T07:35:02.253Z,90.30
2023-05-18T07:37:34.002Z,89.30
2023-05-18T07:40:06.752Z,88.20
2023-05-18T07:42:43.420Z,87.60
2023-05-18T07:45:15.236Z,87.90
2023-05-18T07:47:47.061Z,88.80
2023-05-18T07:50:19.382Z,90.10
2023-05-18T07:52:51.140Z,90.00
2023-05-18T07:55:23.119Z,88.20
2023-05-18T07:57:54.873Z,89.80
2023-05-18T08:00:27.277Z,87.20
2023-05-18T08:03:00.915Z,87.50
2023-05-18T08:05:33.322Z,87.60
2023-05-18T08:08:06.844Z,85.30
2023-05-18T08:10:38.915Z,85.00
2023-05-18T08:13:11.107Z,85.20
2023-05-18T08:15:43.744Z,88.60
2023-05-18T08:18:15.528Z,85.90
2023-05-18T08:20:47.361Z,85.10
2023-05-18T08:23:19.516Z,84.60
2023-05-18T08:25:51.265Z,83.50
2023-05-18T08:28:23.478Z,82.80
2023-05-18T08:30:55.534Z,81.00
2023-05-18T08:33:27.333Z,82.60
2023-05-18T08:35:59.144Z,79.80
2023-05-18T08:38:32.092Z,81.40
2023-05-18T08:41:26.411Z,80.50
2023-05-18T08:44:06.671Z,78.30
2023-05-18T08:46:42.742Z,77.30
2023-05-18T08:49:18.273Z,78.40
2023-05-18T08:51:56.766Z,80.50
2023-05-18T08:54:30.740Z,79.70
2023-05-18T08:57:09.090Z,80.10
2023-05-18T08:59:42.657Z,76.10
2023-05-18T09:02:14.782Z,76.60
2023-05-18T09:04:47.776Z,78.30
2023-05-18T09:07:21.921Z,76.40
2023-05-18T09:09:56.286Z,74.70
2023-05-18T09:12:28.859Z,77.00
2023-05-18T09:15:01.276Z,76.60
2023-05-18T09:17:33.059Z,78.40
2023-05-18T09:20:08.436Z,80.90
2023-05-18T09:22:40.811Z,77.20
2023-05-18T09:25:13.004Z,75.30
2023-05-18T09:27:45.389Z,75.20
2023-05-18T09:30:17.382Z,75.90
2023-05-18T09:32:49.656Z,77.50
2023-05-18T09:35:25.008Z,78.60
2023-05-18T09:37:56.874Z,77.10
2023-05-18T09:40:29.870Z,78.90
2023-05-18T09:43:07.360Z,76.90
2023-05-18T09:45:44.372Z,80.90
2023-05-18T09:48:17.233Z,79.60
2023-05-18T09:50:50.106Z,80.50
2023-05-18T09:53:22.116Z,79.00
2023-05-18T09:55:53.891Z,78.00
2023-05-18T09:58:26.295Z,79.60
2023-05-18T10:01:01.519Z,76.10
2023-05-18T10:03:38.313Z,76.90
2023-05-18T10:06:13.236Z,77.80
2023-05-18T10:08:45.579Z,77.70
2023-05-18T10:11:19.808Z,75.80
2023-05-18T10:13:58.047Z,76.40
2023-05-18T10:16:29.884Z,77.30
2023-05-18T10:19:03.629Z,80.10
2023-05-18T10:21:37.788Z,78.80
2023-05-18T10:24:13.458Z,76.60
2023-05-18T10:26:47.638Z,77.10
2023-05-18T10:29:19.566Z,79.50
2023-05-18T10:31:54.005Z,78.60
2023-05-18T10:34:25.896Z,77.60
2023-05-18T10:36:59.574Z,79.20
2023-05-18T10:39:39.412Z,80.10
2023-05-18T10:42:14.452Z,81.90
2023-05-18T10:44:48.178Z,83.10
2023-05-18T10:47:20.745Z,83.60
2023-05-18T10:49:53.632Z,82.70
2023-05-18T10:52:31.443Z,83.30
2023-05-18T10:55:06.070Z,83.80
2023-05-18T10:57:53.547Z,86.30
2023-05-18T11:00:25.496Z,86.20
2023-05-18T11:02:57.978Z,85.20
2023-05-18T11:05:30.330Z,85.00
2023-05-18T11:08:04.952Z,86.20
2023-05-18T11:10:47.129Z,85.10
2023-05-18T11:13:27.940Z,84.00
2023-05-18T11:15:59.963Z,83.10
2023-05-18T11:18:36.678Z,82.20
2023-05-18T11:21:35.796Z,84.60
2023-05-18T11:24:32.955Z,83.60
2023-05-18T11:27:15.260Z,84.50
2023-05-18T11:29:57.738Z,83.80
2023-05-18T11:32:39.942Z,84.60
2023-05-18T11:35:23.914Z,84.50
2023-05-18T11:37:55.858Z,85.20
2023-05-18T11:40:47.289Z,84.50
2023-05-18T11:43:23.493Z,85.00
2023-05-18T11:45:59.140Z,85.60
2023-05-18T11:48:32.151Z,84.60
2023-05-18T11:51:09.286Z,82.90
2023-05-18T11:53:41.561Z,84.00
2023-05-18T11:56:13.331Z,84.80
2023-05-18T11:58:45.123Z,84.30
2023-05-18T12:01:17.245Z,86.30
2023-05-18T12:03:50.537Z,86.10
2023-05-18T12:06:22.656Z,84.90
2023-05-18T12:08:55.559Z,83.10
2023-05-18T12:11:27.502Z,83.40
2023-05-18T12:13:59.905Z,82.70
2023-05-18T12:16:32.278Z,82.30
2023-05-18T12:19:04.222Z,81.00
2023-05-18T12:21:37.010Z,82.70
2023-05-18T12:24:09.359Z,83.50
2023-05-18T12:26:41.223Z,83.60
2023-05-18T12:29:19.795Z,83.50
2023-05-18T12:31:51.595Z,82.70
2023-05-18T12:34:27.676Z,81.60
2023-05-18T12:36:59.435Z,79.00
2023-05-18T12:39:31.231Z,78.40
2023-05-18T12:42:10.525Z,78.50
2023-05-18T12:44:44.331Z,77.50
2023-05-18T12:47:16.307Z,78.10
2023-05-18T12:49:51.289Z,81.20
2023-05-18T12:52:23.147Z,79.90
2023-05-18T12:55:00.022Z,81.00
2023-05-18T12:57:33.084Z,81.30
2023-05-18T13:00:10.597Z,77.10
2023-05-18T13:02:42.451Z,77.10
2023-05-18T13:05:14.298Z,77.30
2023-05-18T13:07:46.388Z,77.00
2023-05-18T13:10:20.367Z,78.10
2023-05-18T13:12:52.747Z,78.20
2023-05-18T13:15:24.613Z,77.50
2023-05-18T13:18:02.624Z,77.80
2023-05-18T13:20:50.801Z,77.00
2023-05-18T13:23:25.454Z,75.10
2023-05-18T13:25:58.790Z,74.50
2023-05-18T13:28:30.841Z,75.10
2023-05-18T13:31:02.918Z,73.50
2023-05-18T13:33:34.757Z,74.50
2023-05-18T13:36:06.800Z,73.20
2023-05-18T13:38:38.779Z,71.10
2023-05-18T13:41:12.103Z,70.80
2023-05-18T13:43:43.945Z,70.90
2023-05-18T13:46:15.805Z,70.50
2023-05-18T13:48:47.571Z,72.70
2023-05-18T13:51:19.328Z,74.20
2023-05-18T13:53:51.139Z,75.30
2023-05-18T13:56:22.943Z,74.00
2023-05-18T13:58:54.729Z,76.00
2023-05-18T14:01:26.805Z,76.60
2023-05-18T14:03:58.752Z,75.40
2023-05-18T14:06:31.714Z,76.20
2023-05-18T14:09:03.502Z,75.10
2023-05-18T14:11:36.864Z,75.60
2023-05-18T14:14:08.619Z,75.70
2023-05-18T14:16:40.437Z,75.30
2023-05-18T14:19:12.517Z,74.90
2023-05-18T14:21:44.328Z,75.40
2023-05-18T14:24:16.087Z,75.10
2023-05-18T14:26:47.837Z,74.50
2023-05-18T14:29:20.454Z,75.70
2023-05-18T14:31:52.229Z,74.50
2023-05-18T14:34:24.033Z,75.50
2023-05-18T14:36:55.770Z,76.00
2023-05-18T14:39:27.547Z,75.10
2023-05-18T14:41:59.342Z,74.60
2023-05-18T14:44:31.186Z,76.60
2023-05-18T14:47:03.268Z,75.50
2023-05-18T14:49:35.132Z,75.10
2023-05-18T14:52:06.984Z,76.20
2023-05-18T14:54:38.849Z,76.10
2023-05-18T14:57:10.875Z,76.50
2023-05-18T14:59:43.467Z,77.00
2023-05-18T15:02:15.450Z,78.00
2023-05-18T15:04:47.401Z,78.60
2023-05-18T15:07:19.185Z,77.10
2023-05-18T15:09:50.988Z,77.40
2023-05-18T15:12:23.378Z,77.40
2023-05-18T15:14:55.144Z,77.60
2023-05-18T15:17:27.082Z,77.20
2023-05-18T15:19:58.889Z,76.70
2023-05-18T15:22:31.123Z,76.30
2023-05-18T15:25:05.297Z,77.00
2023-05-18T15:27:38.098Z,78.50
2023-05-18T15:30:13.561Z,78.40
2023-05-18T15:32:45.600Z,79.00
2023-05-18T15:35:17.842Z,80.20
2023-05-18T15:37:52.364Z,79.60
2023-05-18T15:40:24.209Z,80.40
2023-05-18T15:42:55.959Z,81.80
2023-05-18T15:45:27.765Z,81.10
2023-05-18T15:47:59.612Z,82.30
2023-05-18T15:50:31.613Z,81.10
2023-05-18T15:53:03.529Z,81.40
2023-05-18T15:55:35.343Z,81.90
2023-05-18T15:58:07.055Z,81.30
2023-05-18T16:00:38.823Z,80.90
2023-05-18T16:03:10.957Z,82.10
2023-05-18T16:05:42.886Z,80.90
2023-05-18T16:08:14.981Z,82.70
2023-05-18T16:10:46.772Z,81.60
2023-05-18T16:13:18.630Z,81.40
2023-05-18T16:15:50.376Z,82.30
2023-05-18T16:18:22.113Z,83.00
2023-05-18T16:20:53.990Z,81.40
2023-05-18T16:23:25.762Z,81.80
2023-05-18T16:25:57.591Z,81.90
2023-05-18T16:28:29.765Z,82.50
2023-05-18T16:31:04.739Z,82.30
2023-05-18T16:33:40.303Z,82.00
2023-05-18T16:36:12.065Z,83.00
2023-05-18T16:38:43.813Z,82.80
2023-05-18T16:41:16.862Z,83.00
2023-05-18T16:43:48.938Z,82.70
2023-05-18T16:46:20.773Z,83.20
2023-05-18T16:48:52.615Z,84.20
2023-05-18T16:51:26.621Z,84.10
2023-05-18T16:53:59.149Z,83.60
2023-05-18T16:56:31.019Z,84.60
2023-05-18T16:59:03.320Z,85.10
2023-05-18T17:01:35.822Z,85.40
2023-05-18T17:04:07.672Z,85.80
2023-05-18T17:06:39.496Z,85.30
2023-05-18T17:09:11.214Z,82.80
2023-05-18T17:11:42.983Z,83.60
2023-05-18T17:14:14.869Z,84.60
2023-05-18T17:16:47.262Z,84.20
2023-05-18T17:19:19.043Z,84.00
2023-05-18T17:21:51.034Z,85.10
2023-05-18T17:24:22.882Z,85.40
2023-05-18T17:26:54.692Z,85.40
2023-05-18T17:29:27.188Z,86.40
2023-05-18T17:31:59.067Z,86.10
2023-05-18T17:34:31.082Z,85.40
2023-05-18T17:37:03.190Z,85.70
2023-05-18T17:39:34.991Z,85.80
2023-05-18T17:42:06.884Z,85.80
2023-05-18T17:44:38.757Z,86.40
2023-05-18T17:47:10.611Z,86.50
2023-05-18T17:49:42.464Z,87.20
2023-05-18T17:52:14.303Z,88.40
2023-05-18T17:54:46.063Z,88.00
2023-05-18T17:57:18.303Z,88.50
2023-05-18T17:59:50.080Z,87.90
2023-05-18T18:02:22.057Z,87.90
2023-05-18T18:04:53.792Z,88.50
2023-05-18T18:07:26.027Z,89.30
2023-05-18T18:09:57.748Z,89.70
2023-05-18T18:12:29.498Z,89.90
2023-05-18T18:15:01.286Z,90.30
2023-05-18T18:17:33.557Z,90.40
2023-05-18T18:20:06.355Z,90.60
2023-05-18T18:22:38.084Z,91.00
2023-05-18T18:25:09.829Z,91.20
2023-05-18T18:27:41.628Z,91.30
2023-05-18T18:30:14.080Z,91.10
2023-05-18T18:32:45.839Z,91.40
2023-05-18T18:35:17.970Z,91.70
2023-05-18T18:37:49.709Z,92.30
2023-05-18T18:40:21.554Z,91.80
2023-05-18T18:42:53.320Z,92.00
2023-05-18T18:45:26.846Z,92.20
2023-05-18T18:47:59.718Z,92.10
2023-05-18T18:50:31.624Z,92.50
2023-05-18T18:53:03.519Z,92.20
2023-05-18T18:55:35.276Z,92.10
2023-05-18T18:58:08.035Z,92.40
2023-05-18T19:00:39.785Z,92.40
2023-05-18T19:03:14.355Z,92.40
2023-05-18T19:05:46.759Z,92.20
2023-05-18T19:08:18.652Z,92.10
2023-05-18T19:10:50.481Z,92.30
2023-05-18T19:13:22.361Z,92.30
2023-05-18T19:15:54.175Z,92.30
2023-05-18T19:18:26.047Z,92.20
2023-05-18T19:21:01.147Z,92.20
2023-05-18T19:23:32.882Z,92.00
2023-05-18T19:26:04.724Z,92.10
2023-05-18T19:28:36.609Z,92.20
2023-05-18T19:31:10.329Z,92.50
2023-05-18T19:33:42.292Z,92.70
2023-05-18T19:36:14.110Z,92.90
2023-05-18T19:38:46.789Z,93.40
2023-05-18T19:41:23.938Z,93.00
2023-05-18T19:43:56.384Z,93.10
2023-05-18T19:46:28.520Z,93.10
2023-05-18T19:49:00.365Z,93.00
2023-05-18T19:51:35.416Z,93.10
2023-05-18T19:54:07.259Z,93.20
2023-05-18T19:56:39.033Z,93.20
2023-05-18T19:59:10.783Z,93.30
2023-05-18T20:01:42.652Z,93.30
2023-05-18T20:04:14.645Z,93.30
2023-05-18T20:06:46.420Z,93.10
2023-05-18T20:09:18.193Z,93.00
2023-05-18T20:11:49.994Z,93.20
2023-05-18T20:14:22.617Z,93.60
2023-05-18T20:16:56.224Z,93.30
2023-05-18T20:19:28.338Z,93.20
2023-05-18T20:22:00.549Z,93.40
2023-05-18T20:24:32.653Z,93.50
2023-05-18T20:27:04.560Z,93.80
2023-05-18T20:29:36.298Z,93.80
2023-05-18T20:32:08.237Z,93.80
2023-05-18T20:34:41.337Z,94.10
2023-05-18T20:37:14.165Z,94.10
2023-05-18T20:39:51.163Z,94.60
2023-05-18T20:42:23.402Z,94.40
2023-05-18T20:44:57.523Z,94.40
2023-05-18T20:47:31.773Z,94.60
2023-05-18T20:50:04.069Z,94.80
2023-05-18T20:52:36.161Z,95.00
2023-05-18T20:55:09.041Z,94.80
2023-05-18T20:57:41.712Z,94.90
2023-05-18T21:00:13.732Z,95.00
2023-05-18T21:02:46.777Z,95.10
2023-05-18T21:05:19.042Z,95.30
2023-05-18T21:07:51.565Z,95.30
2023-05-18T21:10:23.354Z,95.60
2023-05-18T21:12:55.110Z,96.00
2023-05-18T21:15:26.829Z,95.80
2023-05-18T21:17:58.684Z,95.70
2023-05-18T21:20:30.883Z,95.90
2023-05-18T21:23:02.839Z,96.00
2023-05-18T21:25:35.085Z,96.20
2023-05-18T21:28:07.201Z,96.70
2023-05-18T21:30:38.942Z,96.60
2023-05-18T21:33:10.712Z,96.60
2023-05-18T21:35:42.576Z,96.70
2023-05-18T21:38:14.331Z,96.90
2023-05-18T21:40:46.784Z,97.00
2023-05-18T21:43:18.575Z,97.80
2023-05-18T21:45:50.659Z,97.30
2023-05-18T21:48:22.441Z,97.40
2023-05-18T21:50:54.243Z,97.40
2023-05-18T21:53:26.262Z,97.50
2023-05-18T21:55:58.086Z,97.40
2023-05-18T21:58:29.894Z,97.50
2023-05-18T22:01:01.704Z,97.60
2023-05-18T22:03:33.520Z,97.80
2023-05-18T22:06:05.365Z,97.70
2023-05-18T22:08:37.132Z,97.80
2023-05-18T22:11:08.868Z,97.80
2023-05-18T22:13:40.614Z,97.80
2023-05-18T22:16:12.470Z,97.90
2023-05-18T22:18:44.270Z,97.80
2023-05-18T22:21:16.074Z,97.90
2023-05-18T22:23:47.808Z,98.00
2023-05-18T22:26:20.200Z,98.40
2023-05-18T22:28:52.155Z,98.50
2023-05-18T22:31:23.981Z,98.70
2023-05-18T22:33:55.972Z,98.80
2023-05-18T22:36:29.378Z,98.80
2023-05-18T22:39:01.306Z,98.80
2023-05-18T22:41:33.031Z,99.00
2023-05-18T22:44:04.981Z,99.20
2023-05-18T22:46:37.735Z,99.40
2023-05-18T22:49:09.502Z,99.60
2023-05-18T22:51:41.322Z,99.90
2023-05-18T22:54:13.060Z,99.90
2023-05-18T22:56:44.872Z,99.90
2023-05-18T22:59:16.645Z,99.90
2023-05-18T23:01:52.701Z,99.90
2023-05-18T23:04:24.578Z,99.90
2023-05-18T23:06:57.013Z,99.90
2023-05-18T23:09:30.407Z,99.90
2023-05-18T23:12:02.462Z,99.90
2023-05-18T23:14:34.277Z,99.90
2023-05-18T23:17:06.507Z,99.90
2023-05-18T23:19:39.315Z,99.90
2023-05-18T23:22:11.340Z,99.90
2023-05-18T23:24:43.443Z,99.90
2023-05-18T23:27:15.432Z,99.90
2023-05-18T23:29:47.180Z,99.90
2023-05-18T23:32:19.029Z,99.90
2023-05-18T23:34:52.985Z,99.90
2023-05-18T23:37:26.130Z,99.90
2023-05-18T23:40:01.729Z,99.90
2023-05-18T23:42:33.872Z,99.90
2023-05-18T23:45:08.061Z,99.90
2023-05-18T23:47:40.360Z,99.90
2023-05-18T23:50:12.967Z,99.90
2023-05-18T23:52:46.752Z,99.90
2023-05-18T23:55:23.977Z,99.90
2023-05-18T23:57:57.428Z,99.90
